sensor_id;sensor_type;location;lat;lon;timestamp;P1;durP1;ratioP1;P2;durP2;ratioP2
59599;SDS011;61855;55.030;73.326;2022-10-18T00:00:26;9.23;;;6.30;;
59599;SDS011;61855;55.030;73.326;2022-10-18T00:02:57;10.18;;;6.13;;
59599;SDS011;61855;55.030;73.326;2022-10-18T00:05:23;15.00;;;6.68;;
59599;SDS011;61855;55.030;73.326;2022-10-18T00:07:49;9.98;;;5.97;;
59599;SDS011;61855;55.030;73.326;2022-10-18T00:10:15;10.15;;;6.20;;
59599;SDS011;61855;55.030;73.326;2022-10-18T00:12:41;10.05;;;6.05;;
59599;SDS011;61855;55.030;73.326;2022-10-18T00:15:17;9.43;;;5.50;;
59599;SDS011;61855;55.030;73.326;2022-10-18T00:17:43;10.50;;;5.97;;
59599;SDS011;61855;55.030;73.326;2022-10-18T00:20:10;10.30;;;6.47;;
59599;SDS011;61855;55.030;73.326;2022-10-18T00:22:37;10.50;;;6.32;;
59599;SDS011;61855;55.030;73.326;2022-10-18T00:25:04;8.70;;;5.50;;
59599;SDS011;61855;55.030;73.326;2022-10-18T00:27:32;10.45;;;5.95;;
59599;SDS011;61855;55.030;73.326;2022-10-18T00:29:59;10.45;;;5.65;;
59599;SDS011;61855;55.030;73.326;2022-10-18T00:32:27;11.05;;;6.10;;
59599;SDS011;61855;55.030;73.326;2022-10-18T00:35:03;12.43;;;6.32;;
59599;SDS011;61855;55.030;73.326;2022-10-18T00:37:30;11.45;;;7.13;;
59599;SDS011;61855;55.030;73.326;2022-10-18T00:39:56;12.75;;;7.55;;
59599;SDS011;61855;55.030;73.326;2022-10-18T00:42:26;13.10;;;8.10;;
59599;SDS011;61855;55.030;73.326;2022-10-18T00:45:16;15.48;;;7.18;;
59599;SDS011;61855;55.030;73.326;2022-10-18T00:47:50;13.43;;;8.55;;
59599;SDS011;61855;55.030;73.326;2022-10-18T00:50:20;13.90;;;8.30;;
59599;SDS011;61855;55.030;73.326;2022-10-18T00:52:54;14.43;;;7.35;;
59599;SDS011;61855;55.030;73.326;2022-10-18T00:55:25;13.63;;;7.57;;
59599;SDS011;61855;55.030;73.326;2022-10-18T00:57:54;12.38;;;7.90;;
59599;SDS011;61855;55.030;73.326;2022-10-18T01:00:21;13.63;;;7.93;;
59599;SDS011;61855;55.030;73.326;2022-10-18T01:02:48;13.57;;;7.93;;
59599;SDS011;61855;55.030;73.326;2022-10-18T01:05:15;12.77;;;7.88;;
59599;SDS011;61855;55.030;73.326;2022-10-18T01:08:02;15.23;;;9.10;;
59599;SDS011;61855;55.030;73.326;2022-10-18T01:13:55;14.32;;;8.35;;
59599;SDS011;61855;55.030;73.326;2022-10-18T01:22:04;15.60;;;9.27;;
59599;SDS011;61855;55.030;73.326;2022-10-18T01:29:58;14.85;;;9.52;;
59599;SDS011;61855;55.030;73.326;2022-10-18T01:32:47;19.00;;;8.82;;
59599;SDS011;61855;55.030;73.326;2022-10-18T01:35:20;12.45;;;8.05;;
59599;SDS011;61855;55.030;73.326;2022-10-18T01:37:51;14.43;;;8.45;;
59599;SDS011;61855;55.030;73.326;2022-10-18T01:40:23;12.05;;;8.63;;
59599;SDS011;61855;55.030;73.326;2022-10-18T01:42:49;13.90;;;8.55;;
59599;SDS011;61855;55.030;73.326;2022-10-18T01:45:17;14.80;;;9.38;;
59599;SDS011;61855;55.030;73.326;2022-10-18T01:47:46;17.05;;;8.88;;
59599;SDS011;61855;55.030;73.326;2022-10-18T01:50:12;14.02;;;8.95;;
59599;SDS011;61855;55.030;73.326;2022-10-18T01:52:48;14.27;;;8.25;;
59599;SDS011;61855;55.030;73.326;2022-10-18T01:55:15;14.40;;;8.75;;
59599;SDS011;61855;55.030;73.326;2022-10-18T01:57:46;17.25;;;8.88;;
59599;SDS011;61855;55.030;73.326;2022-10-18T02:00:44;20.85;;;9.50;;
59599;SDS011;61855;55.030;73.326;2022-10-18T02:06:02;14.45;;;8.85;;
59599;SDS011;61855;55.030;73.326;2022-10-18T02:08:37;14.25;;;8.77;;
59599;SDS011;61855;55.030;73.326;2022-10-18T02:16:18;17.25;;;9.65;;
59599;SDS011;61855;55.030;73.326;2022-10-18T02:18:53;15.27;;;10.20;;
59599;SDS011;61855;55.030;73.326;2022-10-18T02:21:27;18.27;;;9.07;;
59599;SDS011;61855;55.030;73.326;2022-10-18T02:24:03;16.45;;;10.30;;
59599;SDS011;61855;55.030;73.326;2022-10-18T02:26:31;16.63;;;10.25;;
59599;SDS011;61855;55.030;73.326;2022-10-18T02:28:57;16.35;;;9.98;;
59599;SDS011;61855;55.030;73.326;2022-10-18T02:31:33;16.98;;;10.38;;
59599;SDS011;61855;55.030;73.326;2022-10-18T02:34:13;13.50;;;9.77;;
59599;SDS011;61855;55.030;73.326;2022-10-18T02:39:18;14.05;;;8.95;;
59599;SDS011;61855;55.030;73.326;2022-10-18T02:41:45;14.70;;;9.40;;
59599;SDS011;61855;55.030;73.326;2022-10-18T02:44:11;17.70;;;8.75;;
59599;SDS011;61855;55.030;73.326;2022-10-18T02:46:41;12.93;;;9.40;;
59599;SDS011;61855;55.030;73.326;2022-10-18T02:49:07;20.05;;;10.15;;
59599;SDS011;61855;55.030;73.326;2022-10-18T02:51:33;15.77;;;9.65;;
59599;SDS011;61855;55.030;73.326;2022-10-18T02:53:59;17.92;;;9.95;;
59599;SDS011;61855;55.030;73.326;2022-10-18T02:56:25;17.90;;;10.10;;
59599;SDS011;61855;55.030;73.326;2022-10-18T02:58:51;14.23;;;9.73;;
59599;SDS011;61855;55.030;73.326;2022-10-18T03:01:17;12.43;;;9.05;;
59599;SDS011;61855;55.030;73.326;2022-10-18T03:03:43;16.60;;;9.63;;
59599;SDS011;61855;55.030;73.326;2022-10-18T03:06:09;13.48;;;9.77;;
59599;SDS011;61855;55.030;73.326;2022-10-18T03:08:35;19.27;;;8.80;;
59599;SDS011;61855;55.030;73.326;2022-10-18T03:11:02;15.20;;;9.70;;
59599;SDS011;61855;55.030;73.326;2022-10-18T03:13:28;12.13;;;9.02;;
59599;SDS011;61855;55.030;73.326;2022-10-18T03:15:54;14.48;;;9.52;;
59599;SDS011;61855;55.030;73.326;2022-10-18T03:18:20;13.93;;;9.30;;
59599;SDS011;61855;55.030;73.326;2022-10-18T03:20:46;15.77;;;9.70;;
59599;SDS011;61855;55.030;73.326;2022-10-18T03:23:13;13.10;;;8.95;;
59599;SDS011;61855;55.030;73.326;2022-10-18T03:25:40;12.13;;;9.30;;
59599;SDS011;61855;55.030;73.326;2022-10-18T03:28:07;12.75;;;8.27;;
59599;SDS011;61855;55.030;73.326;2022-10-18T03:30:33;14.02;;;9.18;;
59599;SDS011;61855;55.030;73.326;2022-10-18T03:33:04;12.63;;;9.02;;
59599;SDS011;61855;55.030;73.326;2022-10-18T03:35:31;13.35;;;8.93;;
59599;SDS011;61855;55.030;73.326;2022-10-18T03:37:57;13.63;;;8.95;;
59599;SDS011;61855;55.030;73.326;2022-10-18T03:40:23;13.48;;;9.18;;
59599;SDS011;61855;55.030;73.326;2022-10-18T03:42:49;14.15;;;8.52;;
59599;SDS011;61855;55.030;73.326;2022-10-18T03:45:25;13.77;;;8.70;;
59599;SDS011;61855;55.030;73.326;2022-10-18T03:47:51;12.52;;;9.10;;
59599;SDS011;61855;55.030;73.326;2022-10-18T03:50:17;14.60;;;8.60;;
59599;SDS011;61855;55.030;73.326;2022-10-18T03:52:43;15.73;;;9.40;;
59599;SDS011;61855;55.030;73.326;2022-10-18T03:55:15;13.60;;;8.70;;
59599;SDS011;61855;55.030;73.326;2022-10-18T03:57:49;13.70;;;8.80;;
59599;SDS011;61855;55.030;73.326;2022-10-18T04:00:15;13.35;;;8.27;;
59599;SDS011;61855;55.030;73.326;2022-10-18T04:02:46;11.70;;;8.50;;
59599;SDS011;61855;55.030;73.326;2022-10-18T04:05:13;12.02;;;9.02;;
59599;SDS011;61855;55.030;73.326;2022-10-18T04:07:39;18.08;;;8.32;;
59599;SDS011;61855;55.030;73.326;2022-10-18T04:10:05;13.48;;;8.50;;
59599;SDS011;61855;55.030;73.326;2022-10-18T04:12:40;15.25;;;8.30;;
59599;SDS011;61855;55.030;73.326;2022-10-18T04:15:07;14.32;;;8.70;;
59599;SDS011;61855;55.030;73.326;2022-10-18T04:17:34;15.00;;;8.70;;
59599;SDS011;61855;55.030;73.326;2022-10-18T04:20:00;12.48;;;8.30;;
59599;SDS011;61855;55.030;73.326;2022-10-18T04:22:31;20.40;;;9.43;;
59599;SDS011;61855;55.030;73.326;2022-10-18T04:25:01;20.05;;;11.43;;
59599;SDS011;61855;55.030;73.326;2022-10-18T04:27:28;18.85;;;10.80;;
59599;SDS011;61855;55.030;73.326;2022-10-18T04:29:55;17.23;;;10.90;;
59599;SDS011;61855;55.030;73.326;2022-10-18T04:32:21;19.00;;;10.50;;
59599;SDS011;61855;55.030;73.326;2022-10-18T04:34:47;17.50;;;10.23;;
59599;SDS011;61855;55.030;73.326;2022-10-18T04:37:18;15.02;;;9.55;;
59599;SDS011;61855;55.030;73.326;2022-10-18T04:39:48;15.60;;;10.23;;
59599;SDS011;61855;55.030;73.326;2022-10-18T04:42:15;17.08;;;10.35;;
59599;SDS011;61855;55.030;73.326;2022-10-18T04:44:44;20.63;;;10.85;;
59599;SDS011;61855;55.030;73.326;2022-10-18T04:47:10;15.82;;;10.55;;
59599;SDS011;61855;55.030;73.326;2022-10-18T04:49:36;21.75;;;10.73;;
59599;SDS011;61855;55.030;73.326;2022-10-18T04:52:08;23.20;;;11.45;;
59599;SDS011;61855;55.030;73.326;2022-10-18T04:54:35;15.50;;;10.63;;
59599;SDS011;61855;55.030;73.326;2022-10-18T04:57:01;16.27;;;9.65;;
59599;SDS011;61855;55.030;73.326;2022-10-18T04:59:27;18.55;;;11.25;;
59599;SDS011;61855;55.030;73.326;2022-10-18T05:01:53;19.60;;;11.63;;
59599;SDS011;61855;55.030;73.326;2022-10-18T05:04:19;16.27;;;11.73;;
59599;SDS011;61855;55.030;73.326;2022-10-18T05:06:45;12.80;;;9.88;;
59599;SDS011;61855;55.030;73.326;2022-10-18T05:09:11;18.85;;;11.60;;
59599;SDS011;61855;55.030;73.326;2022-10-18T05:11:47;13.18;;;9.95;;
59599;SDS011;61855;55.030;73.326;2022-10-18T05:14:13;16.08;;;10.55;;
59599;SDS011;61855;55.030;73.326;2022-10-18T05:16:39;15.90;;;10.93;;
59599;SDS011;61855;55.030;73.326;2022-10-18T05:19:06;14.75;;;10.43;;
59599;SDS011;61855;55.030;73.326;2022-10-18T05:21:32;17.38;;;11.75;;
59599;SDS011;61855;55.030;73.326;2022-10-18T05:23:58;17.60;;;12.27;;
59599;SDS011;61855;55.030;73.326;2022-10-18T05:26:24;15.70;;;11.27;;
59599;SDS011;61855;55.030;73.326;2022-10-18T05:28:51;18.67;;;10.98;;
59599;SDS011;61855;55.030;73.326;2022-10-18T05:31:17;18.05;;;11.05;;
59599;SDS011;61855;55.030;73.326;2022-10-18T05:33:43;19.30;;;12.57;;
59599;SDS011;61855;55.030;73.326;2022-10-18T05:36:09;23.58;;;15.88;;
59599;SDS011;61855;55.030;73.326;2022-10-18T05:38:39;20.25;;;14.45;;
59599;SDS011;61855;55.030;73.326;2022-10-18T05:41:08;23.20;;;15.15;;
59599;SDS011;61855;55.030;73.326;2022-10-18T05:43:35;18.52;;;13.68;;
59599;SDS011;61855;55.030;73.326;2022-10-18T05:46:01;22.50;;;14.63;;
59599;SDS011;61855;55.030;73.326;2022-10-18T05:48:28;24.48;;;16.23;;
59599;SDS011;61855;55.030;73.326;2022-10-18T05:50:56;22.83;;;15.70;;
59599;SDS011;61855;55.030;73.326;2022-10-18T05:53:24;23.88;;;16.02;;
59599;SDS011;61855;55.030;73.326;2022-10-18T05:55:50;23.42;;;15.77;;
59599;SDS011;61855;55.030;73.326;2022-10-18T05:58:17;22.85;;;15.98;;
59599;SDS011;61855;55.030;73.326;2022-10-18T06:00:42;22.80;;;15.23;;
59599;SDS011;61855;55.030;73.326;2022-10-18T06:03:09;25.00;;;15.85;;
59599;SDS011;61855;55.030;73.326;2022-10-18T06:05:35;25.75;;;16.38;;
59599;SDS011;61855;55.030;73.326;2022-10-18T06:08:03;22.70;;;16.73;;
59599;SDS011;61855;55.030;73.326;2022-10-18T06:10:29;25.80;;;16.23;;
59599;SDS011;61855;55.030;73.326;2022-10-18T06:12:55;25.17;;;17.23;;
59599;SDS011;61855;55.030;73.326;2022-10-18T06:15:21;23.80;;;16.33;;
59599;SDS011;61855;55.030;73.326;2022-10-18T06:17:47;27.50;;;17.45;;
59599;SDS011;61855;55.030;73.326;2022-10-18T06:20:13;32.35;;;20.13;;
59599;SDS011;61855;55.030;73.326;2022-10-18T06:22:39;30.50;;;19.98;;
59599;SDS011;61855;55.030;73.326;2022-10-18T06:25:05;26.17;;;18.25;;
59599;SDS011;61855;55.030;73.326;2022-10-18T06:27:33;29.35;;;18.75;;
59599;SDS011;61855;55.030;73.326;2022-10-18T06:29:59;29.05;;;19.13;;
59599;SDS011;61855;55.030;73.326;2022-10-18T06:32:25;29.13;;;18.65;;
59599;SDS011;61855;55.030;73.326;2022-10-18T06:34:51;28.83;;;18.48;;
59599;SDS011;61855;55.030;73.326;2022-10-18T06:37:17;25.30;;;17.83;;
59599;SDS011;61855;55.030;73.326;2022-10-18T06:39:43;25.15;;;17.52;;
59599;SDS011;61855;55.030;73.326;2022-10-18T06:42:09;29.05;;;18.10;;
59599;SDS011;61855;55.030;73.326;2022-10-18T06:44:38;23.80;;;15.55;;
59599;SDS011;61855;55.030;73.326;2022-10-18T06:47:05;26.75;;;16.38;;
59599;SDS011;61855;55.030;73.326;2022-10-18T06:49:33;25.77;;;17.38;;
59599;SDS011;61855;55.030;73.326;2022-10-18T06:52:05;26.17;;;16.92;;
59599;SDS011;61855;55.030;73.326;2022-10-18T06:54:32;25.17;;;16.77;;
59599;SDS011;61855;55.030;73.326;2022-10-18T06:56:58;24.35;;;18.00;;
59599;SDS011;61855;55.030;73.326;2022-10-18T06:59:27;26.83;;;17.58;;
59599;SDS011;61855;55.030;73.326;2022-10-18T07:01:53;29.33;;;18.58;;
59599;SDS011;61855;55.030;73.326;2022-10-18T07:04:19;27.90;;;18.02;;
59599;SDS011;61855;55.030;73.326;2022-10-18T07:06:45;28.25;;;19.48;;
59599;SDS011;61855;55.030;73.326;2022-10-18T07:09:11;30.55;;;21.40;;
59599;SDS011;61855;55.030;73.326;2022-10-18T07:11:38;33.33;;;19.95;;
59599;SDS011;61855;55.030;73.326;2022-10-18T07:14:04;26.02;;;17.10;;
59599;SDS011;61855;55.030;73.326;2022-10-18T07:16:31;35.97;;;25.05;;
59599;SDS011;61855;55.030;73.326;2022-10-18T07:18:58;31.20;;;19.40;;
59599;SDS011;61855;55.030;73.326;2022-10-18T07:21:24;70.88;;;46.80;;
59599;SDS011;61855;55.030;73.326;2022-10-18T07:23:51;43.58;;;27.20;;
59599;SDS011;61855;55.030;73.326;2022-10-18T07:26:25;43.72;;;28.25;;
59599;SDS011;61855;55.030;73.326;2022-10-18T07:29:00;33.35;;;19.77;;
59599;SDS011;61855;55.030;73.326;2022-10-18T07:31:32;40.42;;;25.90;;
59599;SDS011;61855;55.030;73.326;2022-10-18T07:33:59;42.47;;;26.65;;
59599;SDS011;61855;55.030;73.326;2022-10-18T07:36:25;33.90;;;21.00;;
59599;SDS011;61855;55.030;73.326;2022-10-18T07:38:51;37.55;;;23.95;;
59599;SDS011;61855;55.030;73.326;2022-10-18T07:41:18;31.42;;;19.25;;
59599;SDS011;61855;55.030;73.326;2022-10-18T07:43:46;18.55;;;12.57;;
59599;SDS011;61855;55.030;73.326;2022-10-18T07:46:15;21.73;;;13.82;;
59599;SDS011;61855;55.030;73.326;2022-10-18T07:48:42;24.70;;;14.70;;
59599;SDS011;61855;55.030;73.326;2022-10-18T07:51:08;23.63;;;15.02;;
59599;SDS011;61855;55.030;73.326;2022-10-18T07:53:34;21.38;;;12.70;;
59599;SDS011;61855;55.030;73.326;2022-10-18T07:56:04;18.10;;;12.25;;
59599;SDS011;61855;55.030;73.326;2022-10-18T07:58:35;30.40;;;13.45;;
59599;SDS011;61855;55.030;73.326;2022-10-18T08:01:02;21.67;;;13.18;;
59599;SDS011;61855;55.030;73.326;2022-10-18T08:03:30;17.13;;;11.32;;
59599;SDS011;61855;55.030;73.326;2022-10-18T08:05:56;16.85;;;11.93;;
59599;SDS011;61855;55.030;73.326;2022-10-18T08:08:30;18.23;;;11.18;;
59599;SDS011;61855;55.030;73.326;2022-10-18T08:11:04;17.25;;;12.13;;
59599;SDS011;61855;55.030;73.326;2022-10-18T08:13:34;17.25;;;9.93;;
59599;SDS011;61855;55.030;73.326;2022-10-18T08:16:06;13.20;;;8.95;;
59599;SDS011;61855;55.030;73.326;2022-10-18T08:18:35;12.73;;;8.68;;
59599;SDS011;61855;55.030;73.326;2022-10-18T08:21:02;19.42;;;8.85;;
59599;SDS011;61855;55.030;73.326;2022-10-18T08:23:30;14.35;;;8.80;;
59599;SDS011;61855;55.030;73.326;2022-10-18T08:25:59;18.10;;;9.23;;
59599;SDS011;61855;55.030;73.326;2022-10-18T08:28:26;12.18;;;8.57;;
59599;SDS011;61855;55.030;73.326;2022-10-18T08:30:53;12.73;;;8.65;;
59599;SDS011;61855;55.030;73.326;2022-10-18T08:33:21;13.50;;;9.35;;
59599;SDS011;61855;55.030;73.326;2022-10-18T08:35:56;14.98;;;9.40;;
59599;SDS011;61855;55.030;73.326;2022-10-18T08:38:23;14.05;;;8.98;;
59599;SDS011;61855;55.030;73.326;2022-10-18T08:40:54;15.50;;;10.02;;
59599;SDS011;61855;55.030;73.326;2022-10-18T08:45:57;15.15;;;9.90;;
59599;SDS011;61855;55.030;73.326;2022-10-18T08:48:28;15.68;;;8.35;;
59599;SDS011;61855;55.030;73.326;2022-10-18T08:51:00;13.73;;;9.32;;
59599;SDS011;61855;55.030;73.326;2022-10-18T08:53:33;8.95;;;6.47;;
59599;SDS011;61855;55.030;73.326;2022-10-18T08:56:09;8.25;;;6.25;;
59599;SDS011;61855;55.030;73.326;2022-10-18T08:58:44;8.93;;;6.72;;
59599;SDS011;61855;55.030;73.326;2022-10-18T09:06:33;11.70;;;7.55;;
59599;SDS011;61855;55.030;73.326;2022-10-18T09:09:15;11.48;;;7.78;;
59599;SDS011;61855;55.030;73.326;2022-10-18T09:11:57;12.98;;;6.82;;
59599;SDS011;61855;55.030;73.326;2022-10-18T09:25:43;11.15;;;6.97;;
59599;SDS011;61855;55.030;73.326;2022-10-18T09:33:53;10.57;;;7.13;;
59599;SDS011;61855;55.030;73.326;2022-10-18T09:36:24;11.35;;;6.93;;
59599;SDS011;61855;55.030;73.326;2022-10-18T09:39:02;11.73;;;6.60;;
59599;SDS011;61855;55.030;73.326;2022-10-18T09:41:46;12.68;;;8.30;;
59599;SDS011;61855;55.030;73.326;2022-10-18T09:44:19;14.20;;;8.30;;
59599;SDS011;61855;55.030;73.326;2022-10-18T09:47:21;14.30;;;9.50;;
59599;SDS011;61855;55.030;73.326;2022-10-18T09:49:58;15.25;;;10.48;;
59599;SDS011;61855;55.030;73.326;2022-10-18T09:52:30;13.85;;;9.23;;
59599;SDS011;61855;55.030;73.326;2022-10-18T09:55:14;21.02;;;12.20;;
59599;SDS011;61855;55.030;73.326;2022-10-18T09:57:47;20.70;;;13.07;;
59599;SDS011;61855;55.030;73.326;2022-10-18T10:00:23;20.85;;;12.27;;
59599;SDS011;61855;55.030;73.326;2022-10-18T10:02:53;19.75;;;12.02;;
59599;SDS011;61855;55.030;73.326;2022-10-18T10:05:20;22.40;;;13.27;;
59599;SDS011;61855;55.030;73.326;2022-10-18T10:07:46;23.77;;;13.57;;
59599;SDS011;61855;55.030;73.326;2022-10-18T10:10:23;23.17;;;13.90;;
59599;SDS011;61855;55.030;73.326;2022-10-18T10:15:44;26.52;;;12.52;;
59599;SDS011;61855;55.030;73.326;2022-10-18T10:18:23;29.40;;;14.18;;
59599;SDS011;61855;55.030;73.326;2022-10-18T10:21:03;17.85;;;10.30;;
59599;SDS011;61855;55.030;73.326;2022-10-18T10:29:03;12.77;;;7.93;;
59599;SDS011;61855;55.030;73.326;2022-10-18T10:32:10;11.80;;;7.70;;
59599;SDS011;61855;55.030;73.326;2022-10-18T10:34:38;18.00;;;9.00;;
59599;SDS011;61855;55.030;73.326;2022-10-18T10:40:26;17.73;;;10.82;;
59599;SDS011;61855;55.030;73.326;2022-10-18T10:43:25;14.73;;;9.35;;
59599;SDS011;61855;55.030;73.326;2022-10-18T10:45:59;20.40;;;10.23;;
59599;SDS011;61855;55.030;73.326;2022-10-18T10:48:40;17.48;;;9.73;;
59599;SDS011;61855;55.030;73.326;2022-10-18T10:51:11;19.75;;;11.00;;
59599;SDS011;61855;55.030;73.326;2022-10-18T10:53:50;29.42;;;11.02;;
59599;SDS011;61855;55.030;73.326;2022-10-18T10:56:26;25.70;;;12.68;;
59599;SDS011;61855;55.030;73.326;2022-10-18T10:59:16;25.45;;;12.05;;
59599;SDS011;61855;55.030;73.326;2022-10-18T11:01:44;20.85;;;11.27;;
59599;SDS011;61855;55.030;73.326;2022-10-18T11:04:48;29.48;;;13.73;;
59599;SDS011;61855;55.030;73.326;2022-10-18T11:07:41;59.83;;;14.38;;
59599;SDS011;61855;55.030;73.326;2022-10-18T11:10:09;22.42;;;13.60;;
59599;SDS011;61855;55.030;73.326;2022-10-18T11:12:48;29.90;;;15.43;;
59599;SDS011;61855;55.030;73.326;2022-10-18T11:15:34;33.92;;;16.90;;
59599;SDS011;61855;55.030;73.326;2022-10-18T11:18:28;33.35;;;18.67;;
59599;SDS011;61855;55.030;73.326;2022-10-18T11:21:02;38.28;;;21.70;;
59599;SDS011;61855;55.030;73.326;2022-10-18T11:23:39;33.50;;;20.30;;
59599;SDS011;61855;55.030;73.326;2022-10-18T11:52:14;31.45;;;17.35;;
59599;SDS011;61855;55.030;73.326;2022-10-18T11:55:04;34.58;;;17.90;;
59599;SDS011;61855;55.030;73.326;2022-10-18T12:00:48;39.75;;;17.20;;
59599;SDS011;61855;55.030;73.326;2022-10-18T12:03:22;34.35;;;15.65;;
59599;SDS011;61855;55.030;73.326;2022-10-18T12:05:50;33.95;;;14.15;;
59599;SDS011;61855;55.030;73.326;2022-10-18T12:08:22;32.15;;;16.27;;
59599;SDS011;61855;55.030;73.326;2022-10-18T12:10:59;32.88;;;15.75;;
59599;SDS011;61855;55.030;73.326;2022-10-18T12:13:38;40.23;;;17.17;;
59599;SDS011;61855;55.030;73.326;2022-10-18T12:16:19;39.28;;;17.13;;
59599;SDS011;61855;55.030;73.326;2022-10-18T12:18:58;36.45;;;15.45;;
59599;SDS011;61855;55.030;73.326;2022-10-18T12:21:31;22.60;;;12.13;;
59599;SDS011;61855;55.030;73.326;2022-10-18T12:24:01;34.78;;;16.15;;
59599;SDS011;61855;55.030;73.326;2022-10-18T12:26:40;39.55;;;15.85;;
59599;SDS011;61855;55.030;73.326;2022-10-18T12:29:18;35.50;;;16.48;;
59599;SDS011;61855;55.030;73.326;2022-10-18T12:31:56;39.80;;;17.38;;
59599;SDS011;61855;55.030;73.326;2022-10-18T12:34:34;35.35;;;16.00;;
59599;SDS011;61855;55.030;73.326;2022-10-18T12:40:17;42.28;;;17.60;;
59599;SDS011;61855;55.030;73.326;2022-10-18T12:42:48;38.90;;;18.67;;
59599;SDS011;61855;55.030;73.326;2022-10-18T12:47:58;36.17;;;17.45;;
59599;SDS011;61855;55.030;73.326;2022-10-18T12:50:37;36.97;;;17.63;;
59599;SDS011;61855;55.030;73.326;2022-10-18T12:53:18;40.08;;;18.60;;
59599;SDS011;61855;55.030;73.326;2022-10-18T12:55:50;32.28;;;16.38;;
59599;SDS011;61855;55.030;73.326;2022-10-18T12:58:23;35.00;;;17.27;;
59599;SDS011;61855;55.030;73.326;2022-10-18T13:01:03;32.70;;;18.60;;
59599;SDS011;61855;55.030;73.326;2022-10-18T13:03:41;29.80;;;16.70;;
59599;SDS011;61855;55.030;73.326;2022-10-18T13:07:10;40.42;;;20.42;;
59599;SDS011;61855;55.030;73.326;2022-10-18T13:17:40;26.58;;;14.23;;
59599;SDS011;61855;55.030;73.326;2022-10-18T13:23:08;28.08;;;14.85;;
59599;SDS011;61855;55.030;73.326;2022-10-18T13:31:00;31.38;;;15.43;;
59599;SDS011;61855;55.030;73.326;2022-10-18T13:33:39;28.92;;;14.52;;
59599;SDS011;61855;55.030;73.326;2022-10-18T13:41:23;37.38;;;17.90;;
59599;SDS011;61855;55.030;73.326;2022-10-18T13:54:35;34.20;;;17.83;;
59599;SDS011;61855;55.030;73.326;2022-10-18T14:13:29;35.58;;;17.90;;
59599;SDS011;61855;55.030;73.326;2022-10-18T14:16:04;42.13;;;18.67;;
59599;SDS011;61855;55.030;73.326;2022-10-18T14:18:39;41.80;;;19.10;;
59599;SDS011;61855;55.030;73.326;2022-10-18T14:21:10;39.10;;;19.67;;
59599;SDS011;61855;55.030;73.326;2022-10-18T14:23:43;37.22;;;19.80;;
59599;SDS011;61855;55.030;73.326;2022-10-18T14:26:21;44.15;;;20.65;;
59599;SDS011;61855;55.030;73.326;2022-10-18T14:29:05;45.00;;;21.52;;
59599;SDS011;61855;55.030;73.326;2022-10-18T14:31:40;43.22;;;20.80;;
59599;SDS011;61855;55.030;73.326;2022-10-18T14:34:14;38.00;;;19.85;;
59599;SDS011;61855;55.030;73.326;2022-10-18T14:36:40;47.10;;;22.38;;
59599;SDS011;61855;55.030;73.326;2022-10-18T14:39:28;44.90;;;21.77;;
59599;SDS011;61855;55.030;73.326;2022-10-18T14:41:55;58.65;;;24.63;;
59599;SDS011;61855;55.030;73.326;2022-10-18T14:49:45;54.50;;;25.38;;
59599;SDS011;61855;55.030;73.326;2022-10-18T14:52:22;49.53;;;24.67;;
59599;SDS011;61855;55.030;73.326;2022-10-18T14:54:57;52.13;;;24.90;;
59599;SDS011;61855;55.030;73.326;2022-10-18T14:57:36;57.72;;;25.27;;
59599;SDS011;61855;55.030;73.326;2022-10-18T15:00:15;58.08;;;25.80;;
59599;SDS011;61855;55.030;73.326;2022-10-18T15:02:46;73.57;;;27.88;;
59599;SDS011;61855;55.030;73.326;2022-10-18T15:07:41;59.22;;;26.23;;
59599;SDS011;61855;55.030;73.326;2022-10-18T15:10:15;56.90;;;25.20;;
59599;SDS011;61855;55.030;73.326;2022-10-18T15:12:43;58.08;;;26.90;;
59599;SDS011;61855;55.030;73.326;2022-10-18T15:15:17;70.25;;;31.42;;
59599;SDS011;61855;55.030;73.326;2022-10-18T15:17:45;72.68;;;34.22;;
59599;SDS011;61855;55.030;73.326;2022-10-18T15:20:23;72.30;;;34.35;;
59599;SDS011;61855;55.030;73.326;2022-10-18T15:22:51;68.05;;;34.25;;
59599;SDS011;61855;55.030;73.326;2022-10-18T15:28:00;69.80;;;34.10;;
59599;SDS011;61855;55.030;73.326;2022-10-18T15:30:36;76.20;;;36.00;;
59599;SDS011;61855;55.030;73.326;2022-10-18T15:33:19;62.90;;;33.17;;
59599;SDS011;61855;55.030;73.326;2022-10-18T15:35:47;61.40;;;30.90;;
59599;SDS011;61855;55.030;73.326;2022-10-18T15:38:27;65.35;;;32.33;;
59599;SDS011;61855;55.030;73.326;2022-10-18T15:40:57;64.53;;;33.05;;
59599;SDS011;61855;55.030;73.326;2022-10-18T15:45:59;71.75;;;36.58;;
59599;SDS011;61855;55.030;73.326;2022-10-18T15:51:00;76.90;;;38.45;;
59599;SDS011;61855;55.030;73.326;2022-10-18T15:53:32;76.75;;;39.03;;
59599;SDS011;61855;55.030;73.326;2022-10-18T15:58:54;86.43;;;42.50;;
59599;SDS011;61855;55.030;73.326;2022-10-18T16:01:28;77.93;;;40.45;;
59599;SDS011;61855;55.030;73.326;2022-10-18T16:04:18;84.15;;;41.85;;
59599;SDS011;61855;55.030;73.326;2022-10-18T16:06:48;81.55;;;39.95;;
59599;SDS011;61855;55.030;73.326;2022-10-18T16:09:18;76.53;;;41.47;;
59599;SDS011;61855;55.030;73.326;2022-10-18T16:11:45;82.00;;;41.88;;
59599;SDS011;61855;55.030;73.326;2022-10-18T16:14:14;79.68;;;43.15;;
59599;SDS011;61855;55.030;73.326;2022-10-18T16:16:41;84.70;;;43.45;;
59599;SDS011;61855;55.030;73.326;2022-10-18T16:19:08;88.70;;;41.70;;
59599;SDS011;61855;55.030;73.326;2022-10-18T16:21:49;70.60;;;40.45;;
59599;SDS011;61855;55.030;73.326;2022-10-18T16:24:16;79.00;;;40.40;;
59599;SDS011;61855;55.030;73.326;2022-10-18T16:26:43;75.53;;;40.20;;
59599;SDS011;61855;55.030;73.326;2022-10-18T16:29:13;72.25;;;39.72;;
59599;SDS011;61855;55.030;73.326;2022-10-18T16:31:43;72.88;;;37.88;;
59599;SDS011;61855;55.030;73.326;2022-10-18T16:34:11;60.25;;;34.60;;
59599;SDS011;61855;55.030;73.326;2022-10-18T16:36:39;62.22;;;35.88;;
59599;SDS011;61855;55.030;73.326;2022-10-18T16:39:16;58.03;;;33.28;;
59599;SDS011;61855;55.030;73.326;2022-10-18T16:41:44;56.72;;;33.15;;
59599;SDS011;61855;55.030;73.326;2022-10-18T16:44:11;53.20;;;33.47;;
59599;SDS011;61855;55.030;73.326;2022-10-18T16:46:38;62.95;;;33.70;;
59599;SDS011;61855;55.030;73.326;2022-10-18T16:49:05;59.08;;;31.80;;
59599;SDS011;61855;55.030;73.326;2022-10-18T16:51:47;54.25;;;30.15;;
59599;SDS011;61855;55.030;73.326;2022-10-18T16:54:13;53.67;;;29.20;;
59599;SDS011;61855;55.030;73.326;2022-10-18T16:56:39;52.65;;;29.02;;
59599;SDS011;61855;55.030;73.326;2022-10-18T16:59:05;50.65;;;28.98;;
59599;SDS011;61855;55.030;73.326;2022-10-18T17:01:32;53.58;;;29.88;;
59599;SDS011;61855;55.030;73.326;2022-10-18T17:03:58;49.25;;;28.27;;
59599;SDS011;61855;55.030;73.326;2022-10-18T17:06:25;49.72;;;28.52;;
59599;SDS011;61855;55.030;73.326;2022-10-18T17:08:54;52.28;;;29.15;;
59599;SDS011;61855;55.030;73.326;2022-10-18T17:11:26;51.10;;;29.05;;
59599;SDS011;61855;55.030;73.326;2022-10-18T17:13:53;42.80;;;26.55;;
59599;SDS011;61855;55.030;73.326;2022-10-18T17:16:23;43.65;;;27.27;;
59599;SDS011;61855;55.030;73.326;2022-10-18T17:18:53;40.58;;;24.30;;